createdAt,value
2019-05-18T00:00:39.054Z,100808.73
2019-05-18T00:03:14.142Z,100803.47
2019-05-18T00:05:49.234Z,100807.58
2019-05-18T00:08:24.368Z,100800.43
2019-05-18T00:10:59.396Z,100804.38
2019-05-18T00:13:34.617Z,100804.33
2019-05-18T00:16:09.590Z,100801.94
2019-05-18T00:18:44.667Z,100805.56
2019-05-18T00:21:20.000Z,100806.05
2019-05-18T00:23:55.093Z,100800.86
2019-05-18T00:26:30.071Z,100804.69
2019-05-18T00:29:07.940Z,100809.41
2019-05-18T00:31:43.028Z,100803.30
2019-05-18T00:34:18.191Z,100801.09
2019-05-18T00:36:53.520Z,100797.92
2019-05-18T00:39:28.702Z,100795.05
2019-05-18T00:42:03.786Z,100797.04
2019-05-18T00:44:38.805Z,100791.73
2019-05-18T00:47:13.879Z,100792.78
2019-05-18T00:49:49.201Z,100794.52
2019-05-18T00:52:24.280Z,100792.55
2019-05-18T00:54:59.405Z,100790.77
2019-05-18T00:57:34.505Z,100788.09
2019-05-18T01:00:10.305Z,100791.97
2019-05-18T01:02:47.904Z,100798.30
2019-05-18T01:05:22.940Z,100790.70
2019-05-18T01:07:57.937Z,100791.00
2019-05-18T01:10:33.782Z,100790.10
2019-05-18T01:13:08.799Z,100791.97
2019-05-18T01:15:43.821Z,100786.11
2019-05-18T01:18:18.921Z,100789.52
2019-05-18T01:20:54.232Z,100790.59
2019-05-18T01:23:29.492Z,100786.57
2019-05-18T01:26:04.718Z,100786.57
2019-05-18T01:28:39.818Z,100783.77
2019-05-18T01:31:14.900Z,100779.08
2019-05-18T01:33:49.898Z,100779.59
2019-05-18T01:36:25.023Z,100780.06
2019-05-18T01:39:00.018Z,100788.31
2019-05-18T01:41:35.462Z,100777.75
2019-05-18T01:44:10.467Z,100781.14
2019-05-18T01:46:45.464Z,100781.81
2019-05-18T01:49:20.574Z,100777.09
2019-05-18T01:51:55.569Z,100783.30
2019-05-18T01:54:30.706Z,100777.98
2019-05-18T01:57:05.909Z,100778.36
2019-05-18T01:59:40.891Z,100777.03
2019-05-18T02:02:15.914Z,100776.27
2019-05-18T02:04:50.935Z,100772.08
2019-05-18T02:07:26.063Z,100768.92
2019-05-18T02:10:01.186Z,100774.72
2019-05-18T02:12:36.203Z,100770.62
2019-05-18T02:15:12.342Z,100767.47
2019-05-18T02:17:47.540Z,100766.45
2019-05-18T02:20:22.656Z,100769.13
2019-05-18T02:22:57.751Z,100766.50
2019-05-18T02:25:32.844Z,100763.94
2019-05-18T02:28:07.818Z,100765.23
2019-05-18T02:30:42.896Z,100768.17
2019-05-18T02:33:17.952Z,100770.20
2019-05-18T02:35:53.047Z,100772.30
2019-05-18T02:38:28.057Z,100772.66
2019-05-18T02:41:03.361Z,100769.23
2019-05-18T02:43:38.418Z,100766.31
2019-05-18T02:46:13.445Z,100764.11
2019-05-18T02:48:50.687Z,100767.03
2019-05-18T02:51:25.256Z,100758.08
2019-05-18T02:54:00.360Z,100760.28
2019-05-18T02:56:35.494Z,100759.75
2019-05-18T02:59:10.477Z,100754.79
2019-05-18T03:01:45.533Z,100756.92
2019-05-18T03:04:20.561Z,100747.52
2019-05-18T03:06:55.743Z,100748.22
2019-05-18T03:09:30.737Z,100744.36
2019-05-18T03:12:05.890Z,100744.36
2019-05-18T03:14:40.873Z,100744.43
2019-05-18T03:17:15.892Z,100740.48
2019-05-18T03:19:50.974Z,100743.61
2019-05-18T03:22:26.037Z,100742.08
2019-05-18T03:25:01.037Z,100743.40
2019-05-18T03:27:36.182Z,100740.02
2019-05-18T03:30:12.709Z,100740.48
2019-05-18T03:32:47.830Z,100740.48
2019-05-18T03:35:22.826Z,100738.95
2019-05-18T03:37:57.838Z,100733.66
2019-05-18T03:40:33.142Z,100737.32
2019-05-18T03:43:08.151Z,100733.38
2019-05-18T03:45:43.257Z,100734.44
2019-05-18T03:48:18.293Z,100733.91
2019-05-18T03:50:53.332Z,100731.56
2019-05-18T03:53:28.345Z,100736.61
2019-05-18T03:56:04.331Z,100736.89
2019-05-18T03:58:39.465Z,100739.55
2019-05-18T04:01:14.590Z,100739.05
2019-05-18T04:03:49.611Z,100738.55
2019-05-18T04:06:25.653Z,100727.81
2019-05-18T04:09:00.673Z,100734.42
2019-05-18T04:11:37.164Z,100735.51
2019-05-18T04:14:12.431Z,100733.95
2019-05-18T04:16:47.425Z,100734.77
2019-05-18T04:19:22.562Z,100734.78
2019-05-18T04:21:57.684Z,100734.55
2019-05-18T04:24:33.008Z,100732.26
2019-05-18T04:27:08.003Z,100730.42
2019-05-18T04:29:43.314Z,100737.55
2019-05-18T04:32:18.315Z,100728.34
2019-05-18T04:34:53.450Z,100730.44
2019-05-18T04:37:28.555Z,100732.29
2019-05-18T04:40:03.723Z,100730.20
2019-05-18T04:42:38.860Z,100741.28
2019-05-18T04:45:14.112Z,100732.83
2019-05-18T04:47:51.374Z,100738.09
2019-05-18T04:50:27.168Z,100738.06
2019-05-18T04:53:02.290Z,100729.88
2019-05-18T04:55:37.623Z,100732.25
2019-05-18T04:58:12.647Z,100735.09
2019-05-18T05:00:47.843Z,100732.45
2019-05-18T05:03:22.946Z,100739.02
2019-05-18T05:05:57.949Z,100736.04
2019-05-18T05:08:33.168Z,100729.08
2019-05-18T05:11:08.180Z,100725.85
2019-05-18T05:13:43.889Z,100733.24
2019-05-18T05:16:20.040Z,100725.02
2019-05-18T05:18:55.214Z,100724.87
2019-05-18T05:21:30.783Z,100724.84
2019-05-18T05:24:06.326Z,100723.38
2019-05-18T05:26:41.465Z,100722.02
2019-05-18T05:29:16.578Z,100728.37
2019-05-18T05:31:51.613Z,100723.28
2019-05-18T05:34:26.610Z,100716.19
2019-05-18T05:37:01.739Z,100715.61
2019-05-18T05:39:36.740Z,100717.70
2019-05-18T05:42:11.931Z,100711.41
2019-05-18T05:44:46.997Z,100715.55
2019-05-18T05:47:21.994Z,100723.79
2019-05-18T05:49:57.029Z,100722.70
2019-05-18T05:52:32.013Z,100721.35
2019-05-18T05:55:07.762Z,100722.23
2019-05-18T05:57:42.865Z,100728.44
2019-05-18T06:00:18.120Z,100729.70
2019-05-18T06:02:53.415Z,100732.14
2019-05-18T06:05:30.353Z,100733.42
2019-05-18T06:08:06.429Z,100733.16
2019-05-18T06:10:41.556Z,100738.65
2019-05-18T06:13:16.533Z,100729.00
2019-05-18T06:15:51.615Z,100724.75
2019-05-18T06:18:26.870Z,100724.17
2019-05-18T06:21:02.010Z,100726.06
2019-05-18T06:23:37.353Z,100719.70
2019-05-18T06:26:12.449Z,100724.31
2019-05-18T06:28:47.519Z,100719.47
2019-05-18T06:31:23.283Z,100732.72
2019-05-18T06:33:58.468Z,100731.13
2019-05-18T06:36:33.823Z,100736.13
2019-05-18T06:39:09.855Z,100734.42
2019-05-18T06:41:44.999Z,100733.22
2019-05-18T06:44:20.162Z,100734.70
2019-05-18T06:46:55.199Z,100736.58
2019-05-18T06:49:30.344Z,100747.39
2019-05-18T06:52:05.638Z,100739.06
2019-05-18T06:54:40.718Z,100740.34
2019-05-18T06:57:17.388Z,100734.71
2019-05-18T06:59:52.795Z,100740.59
2019-05-18T07:02:27.878Z,100740.55
2019-05-18T07:05:04.134Z,100742.27
2019-05-18T07:07:39.561Z,100744.25
2019-05-18T07:10:15.377Z,100743.49
2019-05-18T07:12:50.542Z,100738.28
2019-05-18T07:15:25.678Z,100738.28
2019-05-18T07:18:00.767Z,100739.49
2019-05-18T07:20:35.884Z,100742.28
2019-05-18T07:23:11.103Z,100739.70
2019-05-18T07:25:46.184Z,100744.37
2019-05-18T07:28:21.320Z,100738.72
2019-05-18T07:30:56.424Z,100738.87
2019-05-18T07:33:31.765Z,100738.51
2019-05-18T07:36:07.446Z,100734.81
2019-05-18T07:38:42.571Z,100727.06
2019-05-18T07:41:17.803Z,100726.34
2019-05-18T07:43:53.341Z,100726.62
2019-05-18T07:46:28.374Z,100727.19
2019-05-18T07:49:04.661Z,100727.94
2019-05-18T07:51:40.208Z,100729.66
2019-05-18T07:54:15.384Z,100727.41
2019-05-18T07:56:50.766Z,100730.62
2019-05-18T07:59:26.104Z,100725.68
2019-05-18T08:02:01.195Z,100720.75
2019-05-18T08:04:39.687Z,100720.12
2019-05-18T08:07:13.081Z,100720.05
2019-05-18T08:09:48.190Z,100716.64
2019-05-18T08:12:23.189Z,100718.38
2019-05-18T08:14:58.371Z,100720.09
2019-05-18T08:17:36.035Z,100716.94
2019-05-18T08:20:11.765Z,100717.59
2019-05-18T08:22:55.485Z,100714.38
2019-05-18T08:25:30.650Z,100701.28
2019-05-18T08:28:05.761Z,100701.98
2019-05-18T08:30:41.037Z,100708.08
2019-05-18T08:33:16.120Z,100703.48
2019-05-18T08:35:51.265Z,100699.22
2019-05-18T08:38:26.288Z,100700.16
2019-05-18T08:41:01.453Z,100700.41
2019-05-18T08:43:36.567Z,100697.38
2019-05-18T08:46:11.733Z,100702.18
2019-05-18T08:48:46.979Z,100704.23
2019-05-18T08:51:22.479Z,100700.56
2019-05-18T08:53:57.866Z,100702.78
2019-05-18T08:56:33.260Z,100698.03
2019-05-18T08:59:08.277Z,100697.33
2019-05-18T09:01:43.947Z,100699.83
2019-05-18T09:04:19.044Z,100697.20
2019-05-18T09:06:54.079Z,100704.38
2019-05-18T09:09:32.791Z,100699.59
2019-05-18T09:12:07.841Z,100700.75
2019-05-18T09:14:43.049Z,100703.98
2019-05-18T09:17:18.070Z,100701.49
2019-05-18T09:19:53.113Z,100699.03
2019-05-18T09:22:28.261Z,100703.52
2019-05-18T09:25:03.318Z,100702.98
2019-05-18T09:27:38.597Z,100699.66
2019-05-18T09:30:13.951Z,100690.78
2019-05-18T09:32:49.251Z,100694.50
2019-05-18T09:35:24.260Z,100696.97
2019-05-18T09:38:00.249Z,100685.98
2019-05-18T09:40:35.433Z,100691.07
2019-05-18T09:43:11.616Z,100692.41
2019-05-18T09:45:46.653Z,100685.34
2019-05-18T09:48:22.438Z,100693.83
2019-05-18T09:50:57.595Z,100685.11
2019-05-18T09:53:33.407Z,100691.37
2019-05-18T09:56:08.796Z,100689.03
2019-05-18T09:58:44.961Z,100689.18
2019-05-18T10:01:21.299Z,100690.84
2019-05-18T10:03:57.333Z,100696.55
2019-05-18T10:06:32.491Z,100692.85
2019-05-18T10:09:10.836Z,100686.97
2019-05-18T10:11:45.957Z,100688.70
2019-05-18T10:14:21.062Z,100682.13
2019-05-18T10:16:56.121Z,100689.58
2019-05-18T10:19:31.349Z,100685.03
2019-05-18T10:22:06.397Z,100689.23
2019-05-18T10:24:41.476Z,100687.93
2019-05-18T10:27:16.503Z,100685.29
2019-05-18T10:29:51.587Z,100674.68
2019-05-18T10:32:26.758Z,100673.30
2019-05-18T10:35:01.829Z,100668.83
2019-05-18T10:37:36.902Z,100668.84
2019-05-18T10:40:14.678Z,100665.91
2019-05-18T10:42:50.042Z,100670.08
2019-05-18T10:45:26.545Z,100669.39
2019-05-18T10:48:01.710Z,100667.72
2019-05-18T10:50:36.780Z,100676.67
2019-05-18T10:53:28.458Z,100665.94
2019-05-18T10:55:53.775Z,100673.52
2019-05-18T10:58:28.872Z,100658.32
2019-05-18T11:01:04.384Z,100669.22
2019-05-18T11:03:39.731Z,100666.34
2019-05-18T11:06:15.005Z,100658.99
2019-05-18T11:08:50.942Z,100653.53
2019-05-18T11:11:26.066Z,100654.09
2019-05-18T11:14:01.475Z,100644.17
2019-05-18T11:16:36.496Z,100649.36
2019-05-18T11:19:11.829Z,100648.75
2019-05-18T11:21:46.834Z,100649.96
2019-05-18T11:24:23.315Z,100647.13
2019-05-18T11:26:58.338Z,100643.36
2019-05-18T11:29:33.702Z,100641.22
2019-05-18T11:32:09.931Z,100636.79
2019-05-18T11:34:45.434Z,100637.83
2019-05-18T11:37:20.488Z,100630.29
2019-05-18T11:39:55.630Z,100632.73
2019-05-18T11:42:30.618Z,100632.83
2019-05-18T11:45:06.797Z,100632.89
2019-05-18T11:47:41.931Z,100632.45
2019-05-18T11:50:17.547Z,100633.39
2019-05-18T11:52:52.803Z,100632.43
2019-05-18T11:55:27.818Z,100631.53
2019-05-18T11:58:02.809Z,100632.45
2019-05-18T12:00:37.971Z,100631.25
2019-05-18T12:03:12.996Z,100628.09
2019-05-18T12:05:48.087Z,100623.28
2019-05-18T12:08:24.141Z,100625.95
2019-05-18T12:11:00.239Z,100621.23
2019-05-18T12:13:35.205Z,100625.63
2019-05-18T12:16:10.325Z,100618.88
2019-05-18T12:18:45.432Z,100616.56
2019-05-18T12:21:21.917Z,100610.11
2019-05-18T12:23:57.130Z,100612.48
2019-05-18T12:26:32.243Z,100601.48
2019-05-18T12:29:07.273Z,100602.91
2019-05-18T12:31:44.385Z,100596.34
2019-05-18T12:34:21.351Z,100594.23
2019-05-18T12:36:57.163Z,100593.89
2019-05-18T12:39:32.279Z,100593.37
2019-05-18T12:42:07.786Z,100595.09
2019-05-18T12:44:42.974Z,100592.50
2019-05-18T12:47:17.949Z,100584.41
2019-05-18T12:49:53.078Z,100592.56
2019-05-18T12:52:28.176Z,100597.59
2019-05-18T12:55:03.336Z,100599.86
2019-05-18T12:57:39.385Z,100597.48
2019-05-18T13:00:16.640Z,100590.05
2019-05-18T13:02:51.806Z,100590.42
2019-05-18T13:05:26.917Z,100599.50
2019-05-18T13:08:02.029Z,100592.03
2019-05-18T13:10:37.408Z,100591.03
2019-05-18T13:13:12.431Z,100588.30
2019-05-18T13:15:47.655Z,100589.80
2019-05-18T13:18:22.754Z,100579.47
2019-05-18T13:20:57.886Z,100592.80
2019-05-18T13:23:33.004Z,100587.75
2019-05-18T13:26:08.134Z,100585.46
2019-05-18T13:28:43.231Z,100577.39
2019-05-18T13:31:18.332Z,100572.66
2019-05-18T13:33:53.311Z,100573.03
2019-05-18T13:36:28.522Z,100567.97
2019-05-18T13:39:05.631Z,100562.44
2019-05-18T13:41:41.472Z,100564.11
2019-05-18T13:44:16.560Z,100558.80
2019-05-18T13:46:51.742Z,100565.26
2019-05-18T13:49:26.808Z,100565.14
2019-05-18T13:52:01.829Z,100569.48
2019-05-18T13:54:36.817Z,100569.24
2019-05-18T13:57:11.845Z,100564.27
2019-05-18T13:59:51.654Z,100563.10
2019-05-18T14:02:26.776Z,100564.34
2019-05-18T14:05:02.049Z,100559.04
2019-05-18T14:07:37.243Z,100550.94
2019-05-18T14:10:14.091Z,100555.03
2019-05-18T14:12:49.308Z,100550.13
2019-05-18T14:15:24.341Z,100555.07
2019-05-18T14:17:59.484Z,100554.12
2019-05-18T14:20:34.502Z,100552.58
2019-05-18T14:23:10.659Z,100556.41
2019-05-18T14:25:46.258Z,100554.38
2019-05-18T14:28:21.587Z,100558.94
2019-05-18T14:30:56.558Z,100554.64
2019-05-18T14:33:32.631Z,100544.30
2019-05-18T14:36:07.686Z,100555.53
2019-05-18T14:38:42.696Z,100553.73
2019-05-18T14:41:17.788Z,100553.52
2019-05-18T14:43:52.765Z,100553.91
2019-05-18T14:46:27.898Z,100556.23
2019-05-18T14:49:02.891Z,100561.19
2019-05-18T14:51:38.022Z,100547.56
2019-05-18T14:54:12.994Z,100544.30
2019-05-18T14:56:48.132Z,100545.45
2019-05-18T14:59:23.096Z,100550.51
2019-05-18T15:01:59.335Z,100546.11
2019-05-18T15:04:34.334Z,100549.16
2019-05-18T15:07:09.643Z,100552.55
2019-05-18T15:09:44.679Z,100556.73
2019-05-18T15:12:19.739Z,100560.17
2019-05-18T15:14:54.812Z,100561.52
2019-05-18T15:17:29.993Z,100555.31
2019-05-18T15:20:05.456Z,100553.47
2019-05-18T15:22:40.554Z,100555.00
2019-05-18T15:25:16.306Z,100543.88
2019-05-18T15:27:53.185Z,100545.88
2019-05-18T15:30:28.433Z,100541.80
2019-05-18T15:33:03.593Z,100541.27
2019-05-18T15:35:38.725Z,100539.89
2019-05-18T15:38:13.786Z,100545.15
2019-05-18T15:40:49.674Z,100547.67
2019-05-18T15:43:24.732Z,100543.66
2019-05-18T15:45:59.682Z,100535.20
2019-05-18T15:48:34.991Z,100538.59
2019-05-18T15:51:10.191Z,100535.84
2019-05-18T15:53:45.260Z,100530.12
2019-05-18T15:56:20.368Z,100530.77
2019-05-18T15:58:55.443Z,100531.78
2019-05-18T16:01:30.530Z,100535.73
2019-05-18T16:04:06.666Z,100534.64
2019-05-18T16:06:41.808Z,100523.72
2019-05-18T16:09:17.027Z,100525.86
2019-05-18T16:11:52.040Z,100526.83
2019-05-18T16:14:27.165Z,100526.73
2019-05-18T16:17:02.288Z,100529.27
2019-05-18T16:19:37.441Z,100531.02
2019-05-18T16:22:12.452Z,100536.78
2019-05-18T16:24:47.672Z,100534.24
2019-05-18T16:27:22.699Z,100536.10
2019-05-18T16:30:03.187Z,100534.36
2019-05-18T16:32:38.250Z,100541.38
2019-05-18T16:35:15.261Z,100541.55
2019-05-18T16:37:50.297Z,100536.66
2019-05-18T16:40:26.658Z,100535.08
2019-05-18T16:43:01.648Z,100532.07
2019-05-18T16:45:36.634Z,100533.92
2019-05-18T16:48:11.638Z,100529.19
2019-05-18T16:50:46.620Z,100534.04
2019-05-18T16:53:21.737Z,100534.34
2019-05-18T16:55:56.928Z,100534.88
2019-05-18T16:58:31.911Z,100537.19
2019-05-18T17:01:07.396Z,100537.03
2019-05-18T17:03:42.634Z,100543.53
2019-05-18T17:06:17.722Z,100533.42
2019-05-18T17:08:54.072Z,100536.91
2019-05-18T17:11:29.073Z,100535.60
2019-05-18T17:14:04.674Z,100546.28
2019-05-18T17:16:39.849Z,100545.89
2019-05-18T17:19:15.029Z,100549.19
2019-05-18T17:21:50.303Z,100549.15
2019-05-18T17:24:25.405Z,100549.45
2019-05-18T17:27:00.451Z,100559.29
2019-05-18T17:29:35.721Z,100572.39
2019-05-18T17:32:10.756Z,100570.05
2019-05-18T17:34:45.846Z,100570.32
2019-05-18T17:37:20.935Z,100567.52
2019-05-18T17:39:56.085Z,100576.03
2019-05-18T17:42:31.349Z,100572.23
2019-05-18T17:45:07.277Z,100571.68
2019-05-18T17:47:42.710Z,100569.56
2019-05-18T17:50:20.576Z,100576.16
2019-05-18T17:52:55.587Z,100571.68
2019-05-18T17:55:30.707Z,100582.53
2019-05-18T17:58:05.807Z,100573.42
2019-05-18T18:00:41.809Z,100582.73
2019-05-18T18:03:16.930Z,100576.34
2019-05-18T18:05:52.738Z,100581.75
2019-05-18T18:08:27.882Z,100582.95
2019-05-18T18:11:03.301Z,100585.16
2019-05-18T18:13:38.450Z,100585.04
2019-05-18T18:16:13.765Z,100588.11
2019-05-18T18:18:49.442Z,100585.20
2019-05-18T18:21:27.026Z,100587.38
2019-05-18T18:24:05.191Z,100587.36
2019-05-18T18:29:13.603Z,100590.73
2019-05-18T18:31:48.872Z,100599.66
2019-05-18T18:34:24.083Z,100596.17
2019-05-18T18:37:03.136Z,100597.20
2019-05-18T18:39:41.143Z,100601.77
2019-05-18T18:42:18.876Z,100596.84
2019-05-18T18:44:54.344Z,100596.56
2019-05-18T18:47:29.667Z,100593.06
2019-05-18T18:50:06.572Z,100597.53
2019-05-18T18:52:41.863Z,100601.06
2019-05-18T18:55:17.009Z,100603.44
2019-05-18T18:57:52.010Z,100605.25
2019-05-18T19:00:27.411Z,100604.30
2019-05-18T19:03:03.772Z,100610.91
2019-05-18T19:05:39.114Z,100612.96
2019-05-18T19:08:14.170Z,100614.86
2019-05-18T19:10:51.626Z,100609.62
2019-05-18T19:13:27.389Z,100610.70
2019-05-18T19:16:03.265Z,100613.66
2019-05-18T19:18:38.580Z,100618.83
2019-05-18T19:21:13.915Z,100619.06
2019-05-18T19:23:51.936Z,100624.87
2019-05-18T19:26:28.196Z,100617.97
2019-05-18T19:29:03.548Z,100615.30
2019-05-18T19:31:38.841Z,100615.73
2019-05-18T19:34:14.099Z,100629.55
2019-05-18T19:36:49.748Z,100637.39
2019-05-18T19:39:25.091Z,100632.75
2019-05-18T19:42:00.511Z,100632.89
2019-05-18T19:44:35.974Z,100633.11
2019-05-18T19:47:11.532Z,100634.97
2019-05-18T19:49:46.824Z,100635.36
2019-05-18T19:52:22.130Z,100634.74
2019-05-18T19:55:02.541Z,100633.63
2019-05-18T19:57:39.291Z,100626.97
2019-05-18T20:00:15.252Z,100636.86
2019-05-18T20:02:50.761Z,100631.27
2019-05-18T20:05:25.851Z,100631.66
2019-05-18T20:08:01.052Z,100636.16
2019-05-18T20:10:37.274Z,100634.78
2019-05-18T20:13:12.459Z,100633.66
2019-05-18T20:15:47.712Z,100636.05
2019-05-18T20:18:22.848Z,100637.80
2019-05-18T20:20:57.991Z,100629.57
2019-05-18T20:23:33.758Z,100632.09
2019-05-18T20:26:08.985Z,100637.88
2019-05-18T20:28:44.411Z,100635.66
2019-05-18T20:31:19.464Z,100641.64
2019-05-18T20:33:54.632Z,100639.65
2019-05-18T20:36:29.762Z,100638.84
2019-05-18T20:39:06.047Z,100643.72
2019-05-18T20:41:43.713Z,100642.39
2019-05-18T20:44:20.605Z,100645.26
2019-05-18T20:46:56.581Z,100649.42
2019-05-18T20:49:31.705Z,100657.52
2019-05-18T20:52:06.880Z,100650.47
2019-05-18T20:54:41.876Z,100653.58
2019-05-18T20:57:16.910Z,100656.38
2019-05-18T20:59:52.192Z,100652.28
2019-05-18T21:02:27.210Z,100649.73
2019-05-18T21:05:02.300Z,100651.06
2019-05-18T21:07:37.354Z,100654.66
2019-05-18T21:10:12.938Z,100654.27
2019-05-18T21:12:48.064Z,100648.95
2019-05-18T21:15:23.141Z,100652.20
2019-05-18T21:17:58.327Z,100656.18
2019-05-18T21:20:34.376Z,100654.49
2019-05-18T21:23:09.537Z,100653.72
2019-05-18T21:25:44.553Z,100647.71
2019-05-18T21:28:19.621Z,100649.39
2019-05-18T21:30:55.685Z,100649.63
2019-05-18T21:33:30.801Z,100653.17
2019-05-18T21:36:05.838Z,100659.33
2019-05-18T21:38:40.846Z,100654.28
2019-05-18T21:41:16.017Z,100654.08
2019-05-18T21:43:51.148Z,100656.12
2019-05-18T21:46:26.157Z,100653.89
2019-05-18T21:49:01.410Z,100655.52
2019-05-18T21:51:36.493Z,100656.58
2019-05-18T21:54:11.607Z,100654.18
2019-05-18T21:56:48.029Z,100657.05
2019-05-18T21:59:24.067Z,100657.20
2019-05-18T22:01:59.185Z,100653.85
2019-05-18T22:04:34.332Z,100651.73
2019-05-18T22:07:09.377Z,100651.88
2019-05-18T22:09:44.363Z,100655.13
2019-05-18T22:12:19.495Z,100656.81
2019-05-18T22:14:54.774Z,100651.73
2019-05-18T22:17:29.956Z,100654.89
2019-05-18T22:20:04.988Z,100649.14
2019-05-18T22:22:40.051Z,100650.36
2019-05-18T22:25:15.584Z,100653.02
2019-05-18T22:27:51.402Z,100656.42
2019-05-18T22:30:26.561Z,100646.80
2019-05-18T22:33:01.672Z,100647.05
2019-05-18T22:35:36.744Z,100649.80
2019-05-18T22:38:11.867Z,100653.06
2019-05-18T22:40:46.989Z,100642.17
2019-05-18T22:43:21.997Z,100649.61
2019-05-18T22:45:56.980Z,100647.27
2019-05-18T22:48:40.998Z,100644.74
2019-05-18T22:51:09.594Z,100653.48
2019-05-18T22:53:46.547Z,100653.22
2019-05-18T22:56:21.369Z,100652.21
2019-05-18T22:58:56.485Z,100651.11
2019-05-18T23:01:31.461Z,100653.98
2019-05-18T23:04:06.466Z,100652.58
2019-05-18T23:06:41.587Z,100657.20
2019-05-18T23:09:16.769Z,100647.89
2019-05-18T23:11:51.877Z,100652.36
2019-05-18T23:14:27.964Z,100650.48
2019-05-18T23:17:03.023Z,100646.86
2019-05-18T23:19:38.127Z,100648.66
2019-05-18T23:22:13.147Z,100645.59
2019-05-18T23:24:49.106Z,100645.38
2019-05-18T23:27:24.142Z,100638.52
2019-05-18T23:29:59.610Z,100637.70
2019-05-18T23:32:35.573Z,100639.63
2019-05-18T23:35:11.148Z,100641.22
2019-05-18T23:37:47.451Z,100634.98
2019-05-18T23:40:22.547Z,100633.05
2019-05-18T23:42:57.538Z,100635.86
2019-05-18T23:45:32.642Z,100633.03
2019-05-18T23:48:07.654Z,100633.53
2019-05-18T23:50:42.628Z,100639.81
2019-05-18T23:53:17.653Z,100633.69
2019-05-18T23:55:53.443Z,100632.91
2019-05-18T23:58:28.947Z,100630.27
